Time;durP1;ratioP1;P1;durP2;ratioP2;P2;SDS_P1;SDS_P2;PMS_P1;PMS_P2;Temp;Humidity;BMP_temperature;BMP_pressure;BME280_temperature;BME280_humidity;BME280_pressure;Samples;Min_cycle;Max_cycle;Signal;HPM_P1;HPM_P2
2023/03/08 00:00:38;;;;;;;3.03;2.92;;;;;;;-0.13;100.00;99582.75;6108995;23;20033;-74
2023/03/08 00:03:05;;;;;;;3.00;2.80;;;;;;;0.19;100.00;99629.16;6062112;23;20281;-76
2023/03/08 00:05:32;;;;;;;2.92;2.83;;;;;;;-0.06;100.00;99579.97;6103318;23;20033;-74
2023/03/08 00:07:58;;;;;;;3.13;3.03;;;;;;;0.29;100.00;99623.75;6038372;23;20026;-73
2023/03/08 00:10:25;;;;;;;2.70;2.60;;;;;;;-0.28;100.00;99535.00;6104288;23;20024;-77
2023/03/08 00:12:51;;;;;;;4.78;4.50;;;;;;;0.21;100.00;99618.81;6026121;23;20469;-76
2023/03/08 00:15:18;;;;;;;2.72;2.63;;;;;;;0.25;100.00;99623.00;6107150;23;20110;-75
2023/03/08 00:17:44;;;;;;;2.83;2.72;;;;;;;-0.24;100.00;99550.38;6079550;23;20134;-73
2023/03/08 00:20:12;;;;;;;2.92;2.83;;;;;;;0.09;100.00;99632.03;6102992;23;20036;-76
2023/03/08 00:22:40;;;;;;;3.38;3.20;;;;;;;0.21;100.00;99605.06;6039623;23;20026;-76
2023/03/08 00:25:08;;;;;;;2.92;2.78;;;;;;;-0.33;100.00;99562.66;6108574;23;20040;-75
2023/03/08 00:27:36;;;;;;;2.72;2.63;;;;;;;0.30;100.00;99628.88;6064878;23;20474;-72
2023/03/08 00:30:06;;;;;;;3.00;2.90;;;;;;;0.20;100.00;99617.09;6106456;23;20104;-75
2023/03/08 00:32:33;;;;;;;2.72;2.63;;;;;;;0.33;100.00;99631.38;6081734;23;20028;-77
2023/03/08 00:34:59;;;;;;;2.97;2.88;;;;;;;-0.24;100.00;99532.31;6053083;23;20492;-76
2023/03/08 00:37:26;;;;;;;2.97;2.88;;;;;;;-0.36;100.00;99514.59;6084146;23;20036;-77
2023/03/08 00:39:53;;;;;;;2.85;2.75;;;;;;;0.04;100.00;99579.72;6054431;23;20033;-77
2023/03/08 00:42:21;;;;;;;2.47;2.38;;;;;;;0.33;100.00;99635.69;6110678;23;20005;-76
2023/03/08 00:44:47;;;;;;;2.80;2.70;;;;;;;0.33;100.00;99638.28;6055467;23;20753;-77
2023/03/08 00:47:14;;;;;;;2.53;2.42;;;;;;;0.35;100.00;99634.75;6112026;23;20275;-76
2023/03/08 00:49:41;;;;;;;2.95;2.85;;;;;;;0.33;100.00;99613.31;6058648;23;20025;-78
2023/03/08 00:52:09;;;;;;;4.20;4.00;;;;;;;0.01;100.00;99572.06;6028103;23;20103;-75
2023/03/08 00:54:35;;;;;;;2.70;2.60;;;;;;;0.32;100.00;99609.03;6086082;23;20029;-74
2023/03/08 00:57:02;;;;;;;2.90;2.80;;;;;;;0.08;100.00;99583.91;6109624;23;20033;-75
2023/03/08 00:59:28;;;;;;;2.75;2.65;;;;;;;0.35;100.00;99601.19;6086183;23;20014;-73
2023/03/08 01:01:55;;;;;;;3.55;3.35;;;;;;;-0.37;100.00;99483.72;6107660;23;20037;-77
2023/03/08 01:04:21;;;;;;;3.25;3.05;;;;;;;-0.12;100.00;99525.13;6062213;23;20516;-77
2023/03/08 01:06:48;;;;;;;2.67;2.58;;;;;;;-0.07;100.00;99538.75;6083378;23;20034;-74
2023/03/08 01:09:14;;;;;;;3.05;2.85;;;;;;;0.35;100.00;99597.78;6078439;23;20053;-75
2023/03/08 01:11:42;;;;;;;2.85;2.75;;;;;;;0.30;100.00;99604.78;6101954;23;20040;-76
2023/03/08 01:14:11;;;;;;;2.97;2.88;;;;;;;0.17;100.00;99568.19;6080544;23;20029;-75
2023/03/08 01:16:37;;;;;;;2.65;2.55;;;;;;;0.31;100.00;99585.84;6054281;23;20579;-77
2023/03/08 01:19:04;;;;;;;3.40;3.28;;;;;;;-1.20;100.00;99332.22;6083291;23;20021;-75
2023/03/08 01:21:31;;;;;;;2.92;2.72;;;;;;;0.33;100.00;99587.50;6060841;23;20056;-75
2023/03/08 01:23:58;;;;;;;3.15;3.05;;;;;;;0.05;100.00;99542.72;6110011;23;20509;-73
2023/03/08 01:26:26;;;;;;;2.60;2.50;;;;;;;0.41;100.00;99589.03;6058516;23;20048;-77
2023/03/08 01:28:53;;;;;;;2.70;2.60;;;;;;;-0.69;100.00;99400.38;6064585;23;20038;-73
2023/03/08 01:31:22;;;;;;;3.22;3.03;;;;;;;0.39;100.00;99587.31;6052883;23;20476;-77
2023/03/08 01:33:49;;;;;;;2.85;2.75;;;;;;;0.23;100.00;99557.69;6082959;23;20033;-76
2023/03/08 01:36:18;;;;;;;3.00;2.80;;;;;;;-0.27;100.00;99475.66;6107596;23;20039;-73
2023/03/08 01:38:45;;;;;;;2.65;2.55;;;;;;;-1.17;100.00;99311.53;6062765;23;20393;-76
2023/03/08 01:41:24;;;;;;;3.03;2.72;;;;;;;-0.11;100.00;99481.25;6105212;23;20027;-74
2023/03/08 01:43:51;;;;;;;2.60;2.50;;;;;;;0.38;100.00;99567.59;6077687;23;20237;-75
2023/03/08 01:46:29;;;;;;;2.90;2.80;;;;;;;-0.22;100.00;99462.66;6108291;23;20385;-76
2023/03/08 01:49:10;;;;;;;3.05;2.95;;;;;;;0.40;100.00;99552.03;6077428;23;20800;-72
2023/03/08 01:51:43;;;;;;;3.08;2.97;;;;;;;0.26;100.00;99534.38;6083457;23;20112;-73
2023/03/08 01:54:15;;;;;;;2.80;2.70;;;;;;;0.38;100.00;99557.25;6059700;23;20037;-73
2023/03/08 01:56:43;;;;;;;3.40;3.20;;;;;;;0.24;100.00;99530.13;6109891;23;20013;-78
2023/03/08 01:59:11;;;;;;;3.08;2.97;;;;;;;-0.04;100.00;99506.00;6052875;23;20091;-77
2023/03/08 02:01:38;;;;;;;4.03;3.72;;;;;;;-0.26;100.00;99471.34;6081759;23;20037;-74
2023/03/08 02:04:04;;;;;;;2.70;2.60;;;;;;;-0.33;100.00;99470.69;6053029;23;20493;-76
2023/03/08 02:06:31;;;;;;;3.15;2.95;;;;;;;-0.27;100.00;99472.25;6109417;23;20126;-73
2023/03/08 02:09:02;;;;;;;3.20;3.10;;;;;;;-0.84;100.00;99356.13;6084502;23;20034;-74
2023/03/08 02:11:29;;;;;;;2.90;2.80;;;;;;;-0.02;100.00;99511.94;6051102;23;20018;-79
2023/03/08 02:13:56;;;;;;;2.90;2.80;;;;;;;0.02;100.00;99517.00;6080924;23;20370;-76
2023/03/08 02:16:22;;;;;;;3.38;3.28;;;;;;;-1.46;100.00;99277.13;6111489;23;20078;-74
2023/03/08 02:19:00;;;;;;;2.70;2.60;;;;;;;0.05;100.00;99502.28;6078775;23;20441;-76
2023/03/08 02:21:28;;;;;;;2.60;2.50;;;;;;;0.16;100.00;99525.19;6103345;23;20083;-76
2023/03/08 02:23:55;;;;;;;3.13;3.03;;;;;;;0.17;100.00;99522.56;6053846;23;20310;-75
2023/03/08 02:26:22;;;;;;;2.40;2.30;;;;;;;0.19;100.00;99519.97;6052007;23;20398;-75
2023/03/08 02:28:48;;;;;;;2.92;2.83;;;;;;;0.21;100.00;99522.50;6108576;23;20037;-71
2023/03/08 02:31:15;;;;;;;3.72;3.15;;;;;;;-0.13;100.00;99470.13;6040904;23;20025;-75
2023/03/08 02:33:42;;;;;;;3.45;3.22;;;;;;;-0.41;100.00;99411.59;6105819;23;20036;-76
2023/03/08 02:36:09;;;;;;;3.05;2.95;;;;;;;-0.08;100.00;99476.03;6062018;23;20014;-74
2023/03/08 02:38:36;;;;;;;2.85;2.75;;;;;;;-0.04;100.00;99480.19;6081963;23;20480;-75
2023/03/08 02:41:03;;;;;;;3.33;3.13;;;;;;;0.24;100.00;99519.81;6025362;23;20009;-76
2023/03/08 02:43:29;;;;;;;2.92;2.72;;;;;;;0.21;100.00;99513.03;6078887;23;20115;-76
2023/03/08 02:45:56;;;;;;;3.13;3.03;;;;;;;0.09;100.00;99503.91;6081221;23;20206;-73
2023/03/08 02:48:22;;;;;;;3.25;3.10;;;;;;;-0.16;100.00;99472.81;6027491;23;20174;-76
2023/03/08 02:50:49;;;;;;;2.85;2.75;;;;;;;0.12;100.00;99493.50;6080908;23;20120;-76
2023/03/08 02:53:15;;;;;;;2.65;2.55;;;;;;;-0.70;100.00;99354.88;6025937;23;20029;-74
2023/03/08 02:55:41;;;;;;;2.97;2.78;;;;;;;0.23;100.00;99500.91;6102439;23;20477;-77
2023/03/08 02:58:09;;;;;;;3.13;3.03;;;;;;;0.24;100.00;99489.72;6052840;23;20041;-74
2023/03/08 03:00:36;;;;;;;3.30;3.00;;;;;;;0.26;100.00;99492.25;6052473;23;20104;-75
2023/03/08 03:03:03;;;;;;;3.35;3.15;;;;;;;0.27;100.00;99494.78;6079164;23;20200;-74
2023/03/08 03:05:29;;;;;;;3.63;3.42;;;;;;;0.10;100.00;99477.22;6025932;23;20057;-73
2023/03/08 03:07:58;;;;;;;3.97;3.45;;;;;;;0.05;100.00;99445.56;6108808;23;20104;-74
2023/03/08 03:10:24;;;;;;;3.05;2.95;;;;;;;-0.21;100.00;99398.16;6077256;23;20493;-73
2023/03/08 03:12:51;;;;;;;3.88;3.03;;;;;;;0.30;100.00;99476.63;6051052;23;20026;-74
2023/03/08 03:15:18;;;;;;;3.10;3.00;;;;;;;0.33;100.00;99475.69;6109548;23;20118;-74
2023/03/08 03:17:44;;;;;;;2.97;2.88;;;;;;;0.33;100.00;99476.53;6082174;23;20022;-76
2023/03/08 03:20:11;;;;;;;3.25;3.15;;;;;;;0.13;100.00;99438.44;6052572;23;20070;-76
2023/03/08 03:22:38;;;;;;;3.17;3.00;;;;;;;0.27;100.00;99461.25;6075312;23;20236;-75
2023/03/08 03:25:05;;;;;;;2.83;2.72;;;;;;;0.21;100.00;99461.41;6060531;23;20038;-73
2023/03/08 03:27:31;;;;;;;2.80;2.70;;;;;;;-0.69;100.00;99346.28;6075800;23;20029;-74
2023/03/08 03:29:57;;;;;;;3.10;3.00;;;;;;;-0.13;100.00;99425.47;6080598;23;20018;-76
2023/03/08 03:32:24;;;;;;;2.75;2.65;;;;;;;-1.25;100.00;99242.22;6083378;23;20104;-74
2023/03/08 03:34:50;;;;;;;2.75;2.65;;;;;;;-0.25;100.00;99403.44;6084025;23;20132;-76
2023/03/08 03:37:17;;;;;;;5.35;4.22;;;;;;;-0.49;100.00;99366.34;6103051;23;20079;-74
2023/03/08 03:39:43;;;;;;;3.05;2.92;;;;;;;-0.45;100.00;99389.38;6078711;23;20046;-76
2023/03/08 03:42:10;;;;;;;2.85;2.75;;;;;;;-0.06;100.00;99453.59;6104606;23;20100;-75
2023/03/08 03:44:37;;;;;;;3.00;2.90;;;;;;;-0.38;100.00;99390.09;6052007;23;20040;-73
2023/03/08 03:47:04;;;;;;;3.60;3.30;;;;;;;-0.30;100.00;99389.84;6081687;23;20021;-73
2023/03/08 03:49:30;;;;;;;2.80;2.70;;;;;;;0.06;100.00;99457.56;6054018;23;20196;-74
2023/03/08 03:51:57;;;;;;;2.75;2.65;;;;;;;0.07;100.00;99446.34;6106544;23;20116;-73
2023/03/08 03:54:23;;;;;;;3.15;2.95;;;;;;;0.10;100.00;99441.13;6063602;23;20034;-76
2023/03/08 03:56:50;;;;;;;2.72;2.63;;;;;;;0.16;100.00;99432.31;6101990;23;20345;-76
2023/03/08 03:59:16;;;;;;;3.80;3.60;;;;;;;-0.23;100.00;99373.31;6078896;23;20025;-73
2023/03/08 04:01:43;;;;;;;2.80;2.70;;;;;;;-0.49;100.00;99335.41;6049492;23;20033;-74
2023/03/08 04:04:09;;;;;;;3.53;3.33;;;;;;;0.01;100.00;99423.31;6106886;23;20085;-74
2023/03/08 04:06:36;;;;;;;2.65;2.55;;;;;;;0.03;100.00;99420.69;6063471;23;20014;-77
2023/03/08 04:09:06;;;;;;;4.22;3.42;;;;;;;-0.28;100.00;99370.88;6081231;23;20488;-75
2023/03/08 04:11:36;;;;;;;2.83;2.72;;;;;;;-0.07;100.00;99415.81;6080588;23;20024;-75
2023/03/08 04:14:04;;;;;;;3.92;3.15;;;;;;;-1.44;100.00;99189.59;6108702;23;20021;-75
2023/03/08 04:16:33;;;;;;;3.00;2.90;;;;;;;-0.08;100.00;99413.25;6077561;23;20010;-76
2023/03/08 04:19:02;;;;;;;3.53;3.40;;;;;;;-0.13;100.00;99410.81;6049037;23;20042;-75
2023/03/08 04:21:29;;;;;;;2.70;2.60;;;;;;;-0.13;100.00;99410.00;6080891;23;20181;-78
2023/03/08 04:23:56;;;;;;;4.18;3.08;;;;;;;-0.16;100.00;99403.19;6110998;23;20033;-74
2023/03/08 04:26:26;;;;;;;2.95;2.80;;;;;;;-0.45;100.00;99342.16;6077827;23;20022;-75
2023/03/08 04:28:52;;;;;;;2.95;2.85;;;;;;;-0.35;100.00;99360.78;6100418;23;20036;-75
2023/03/08 04:31:24;;;;;;;5.38;3.75;;;;;;;-0.23;100.00;99369.00;6055887;23;20532;-72
2023/03/08 04:33:51;;;;;;;2.80;2.70;;;;;;;-1.41;100.00;99167.19;6106367;23;20145;-77
2023/03/08 04:36:18;;;;;;;2.65;2.55;;;;;;;-0.20;100.00;99357.75;6079540;23;20033;-73
2023/03/08 04:38:46;;;;;;;2.40;2.30;;;;;;;-0.07;100.00;99371.97;6102647;23;20044;-73
2023/03/08 04:41:12;;;;;;;5.95;2.83;;;;;;;-0.41;100.00;99310.25;6045940;23;20030;-75
2023/03/08 04:43:47;;;;;;;4.00;3.13;;;;;;;-0.10;100.00;99359.19;6104394;23;20118;-72
2023/03/08 04:46:15;;;;;;;2.97;2.75;;;;;;;-1.16;100.00;99186.22;6038881;23;20535;-76
2023/03/08 04:48:42;;;;;;;3.10;3.00;;;;;;;-0.08;100.00;99361.69;6078551;23;20045;-77
2023/03/08 04:51:11;;;;;;;3.47;3.28;;;;;;;-0.57;100.00;99283.25;6059124;23;20520;-74
2023/03/08 04:53:40;;;;;;;3.15;3.05;;;;;;;-0.55;100.00;99286.63;6110265;23;20507;-74
2023/03/08 04:56:07;;;;;;;3.35;3.22;;;;;;;-0.11;100.00;99343.75;6053461;23;20018;-76
2023/03/08 04:58:35;;;;;;;3.15;2.97;;;;;;;-0.54;100.00;99265.97;6106536;23;20090;-73
2023/03/08 05:01:13;;;;;;;3.63;3.30;;;;;;;-0.14;100.00;99334.38;6082313;23;20021;-76
2023/03/08 05:03:40;;;;;;;3.65;3.45;;;;;;;-0.12;100.00;99327.44;6091040;23;20021;-75
2023/03/08 05:06:07;;;;;;;3.63;3.33;;;;;;;-0.16;100.00;99322.41;6062483;23;20089;-73
2023/03/08 05:08:37;;;;;;;4.20;3.13;;;;;;;-0.14;100.00;99318.91;6112012;23;20029;-75
2023/03/08 05:11:03;;;;;;;4.15;3.95;;;;;;;-0.60;100.00;99232.66;6086515;23;20714;-78
2023/03/08 05:13:33;;;;;;;3.03;2.88;;;;;;;-0.74;100.00;99206.44;6109826;23;20256;-73
2023/03/08 05:16:01;;;;;;;3.47;3.28;;;;;;;-0.35;100.00;99268.00;6081774;23;20032;-76
2023/03/08 05:18:28;;;;;;;3.10;3.00;;;;;;;-0.10;100.00;99304.16;6111668;23;20021;-75
2023/03/08 05:20:59;;;;;;;2.80;2.70;;;;;;;-0.39;100.00;99253.50;6068103;23;20112;-75
2023/03/08 05:23:26;;;;;;;3.83;3.63;;;;;;;-0.70;100.00;99202.91;6106806;23;20021;-74
2023/03/08 05:25:56;;;;;;;2.83;2.72;;;;;;;-0.14;100.00;99300.84;6063503;23;20193;-75
2023/03/08 05:28:24;;;;;;;3.35;3.17;;;;;;;-0.26;100.00;99275.44;6108577;23;20435;-75
2023/03/08 05:31:03;;;;;;;3.65;3.45;;;;;;;-0.13;100.00;99281.91;6065634;23;20131;-74
2023/03/08 05:33:30;;;;;;;3.10;3.00;;;;;;;-0.13;100.00;99281.06;6111556;23;20036;-74
2023/03/08 05:35:57;;;;;;;3.65;3.38;;;;;;;-0.28;100.00;99266.91;6082034;23;20130;-75
2023/03/08 05:38:24;;;;;;;3.58;3.38;;;;;;;-0.17;100.00;99275.16;6053791;23;20265;-76
2023/03/08 05:40:50;;;;;;;3.25;3.05;;;;;;;-0.17;100.00;99267.41;6107167;23;20044;-75
2023/03/08 05:43:17;;;;;;;3.55;3.30;;;;;;;-0.57;100.00;99206.78;6079216;23;20713;-74
2023/03/08 05:46:02;;;;;;;4.10;3.00;;;;;;;-0.32;100.00;99224.06;6053479;23;20536;-75
2023/03/08 05:48:29;;;;;;;2.90;2.80;;;;;;;-0.11;100.00;99246.59;6083276;23;20017;-76
2023/03/08 05:50:57;;;;;;;2.97;2.88;;;;;;;-0.16;100.00;99243.34;6110948;23;20476;-78
2023/03/08 05:53:24;;;;;;;2.60;2.50;;;;;;;-0.26;100.00;99242.78;6081471;23;20106;-75
2023/03/08 05:55:50;;;;;;;3.25;3.15;;;;;;;-0.18;100.00;99231.38;6105895;23;20108;-74
2023/03/08 05:58:17;;;;;;;3.42;3.28;;;;;;;-0.71;100.00;99155.69;6079559;23;20508;-77
2023/03/08 06:00:43;;;;;;;3.17;3.03;;;;;;;-0.89;100.00;99115.91;6107695;23;20021;-75
2023/03/08 06:03:10;;;;;;;2.90;2.80;;;;;;;-0.39;100.00;99177.03;6023939;23;20187;-73
2023/03/08 06:05:37;;;;;;;3.03;2.83;;;;;;;-0.20;100.00;99215.97;6109331;23;20432;-74
2023/03/08 06:08:03;;;;;;;3.83;3.63;;;;;;;-0.56;100.00;99156.97;6055880;23;20034;-76
2023/03/08 06:10:30;;;;;;;2.97;2.88;;;;;;;-0.39;100.00;99164.16;6108706;23;20675;-73
2023/03/08 06:12:56;;;;;;;3.92;3.63;;;;;;;-0.61;100.00;99104.72;6081689;23;20038;-75
2023/03/08 06:15:23;;;;;;;2.60;2.47;;;;;;;-0.90;100.00;99054.13;6050104;23;20115;-72
2023/03/08 06:17:52;;;;;;;2.75;2.63;;;;;;;-0.14;100.00;99179.66;6081638;23;20093;-74
2023/03/08 06:20:19;;;;;;;3.05;2.88;;;;;;;-0.14;100.00;99171.94;6085740;23;20104;-71
2023/03/08 06:22:45;;;;;;;2.55;2.45;;;;;;;-0.15;100.00;99165.09;6037429;23;20283;-71
2023/03/08 06:25:12;;;;;;;3.13;2.92;;;;;;;-1.23;100.00;98977.09;6107654;23;20644;-72
2023/03/08 06:27:38;;;;;;;4.05;3.80;;;;;;;-0.38;100.00;99113.44;6076693;23;20247;-73
2023/03/08 06:30:05;;;;;;;4.47;3.17;;;;;;;-0.13;100.00;99144.41;6083431;23;20025;-73
2023/03/08 06:32:31;;;;;;;3.25;3.08;;;;;;;-0.10;100.00;99142.56;6059783;23;20163;-73
2023/03/08 06:34:58;;;;;;;3.78;3.58;;;;;;;-0.18;100.00;99149.72;6107966;23;20034;-73
2023/03/08 06:37:24;;;;;;;2.72;2.63;;;;;;;-0.56;100.00;99099.41;6078594;23;20142;-73
2023/03/08 06:39:51;;;;;;;2.90;2.80;;;;;;;-0.25;100.00;99133.59;6106655;23;20033;-73
2023/03/08 06:42:17;;;;;;;3.33;3.13;;;;;;;-0.31;100.00;99125.25;6078171;23;20115;-74
2023/03/08 06:44:47;;;;;;;2.65;2.55;;;;;;;-0.53;100.00;99110.47;6049310;23;20203;-75
2023/03/08 06:47:13;;;;;;;3.30;3.20;;;;;;;-0.37;100.00;99091.94;6104810;23;20078;-75
2023/03/08 06:49:40;;;;;;;3.35;3.25;;;;;;;-0.44;100.00;99073.25;6079781;23;20026;-73
2023/03/08 06:52:06;;;;;;;3.80;3.60;;;;;;;-0.17;100.00;99105.00;6082190;23;20440;-74
2023/03/08 06:54:33;;;;;;;3.22;3.13;;;;;;;-0.52;100.00;99058.06;6064025;23;20014;-73
2023/03/08 06:56:59;;;;;;;3.55;3.35;;;;;;;-0.28;100.00;99092.47;6107563;23;20646;-74
2023/03/08 06:59:25;;;;;;;3.28;3.08;;;;;;;-0.79;100.00;99018.59;6078225;23;20129;-73
2023/03/08 07:01:52;;;;;;;4.55;3.20;;;;;;;-0.67;100.00;99035.38;6107048;23;20025;-76
2023/03/08 07:04:18;;;;;;;3.75;3.55;;;;;;;-0.15;100.00;99095.47;6079942;23;20041;-71
2023/03/08 07:06:45;;;;;;;2.80;2.70;;;;;;;-0.64;100.00;99018.09;6084663;23;20010;-72
2023/03/08 07:09:12;;;;;;;3.83;3.63;;;;;;;-0.42;100.00;99049.13;6053065;23;20104;-73
2023/03/08 07:11:39;;;;;;;4.72;4.43;;;;;;;-0.18;100.00;99089.56;6081972;23;20028;-72
2023/03/08 07:14:06;;;;;;;3.22;3.13;;;;;;;-0.50;100.00;99034.78;6079571;23;20088;-72
2023/03/08 07:16:34;;;;;;;3.50;3.35;;;;;;;-0.20;100.00;99074.19;6051364;23;20051;-73
2023/03/08 07:19:02;;;;;;;3.95;3.75;;;;;;;-0.53;100.00;99029.75;6105606;23;20355;-72
2023/03/08 07:21:28;;;;;;;2.95;2.75;;;;;;;-0.17;100.00;99068.06;6026751;23;20034;-72
2023/03/08 07:23:55;;;;;;;3.13;3.00;;;;;;;-0.21;100.00;99078.47;6106512;23;20336;-73
2023/03/08 07:26:21;;;;;;;3.55;3.25;;;;;;;-0.82;100.00;98983.47;6080561;23;20721;-75
2023/03/08 07:28:49;;;;;;;2.70;2.60;;;;;;;-0.18;100.00;99074.97;6105416;23;20061;-74
2023/03/08 07:31:16;;;;;;;2.67;2.58;;;;;;;-0.32;100.00;99048.78;6059681;23;20033;-71
2023/03/08 07:33:42;;;;;;;2.83;2.72;;;;;;;-0.12;100.00;99068.72;6082787;23;20496;-73
2023/03/08 07:36:09;;;;;;;3.17;3.00;;;;;;;-0.35;100.00;99029.13;6024445;23;20010;-71
2023/03/08 07:38:35;;;;;;;2.60;2.50;;;;;;;-0.12;100.00;99067.00;6103550;23;20037;-74
2023/03/08 07:41:02;;;;;;;3.13;3.00;;;;;;;-0.12;100.00;99059.28;6077283;23;20029;-74
2023/03/08 07:43:28;;;;;;;4.13;3.83;;;;;;;-1.01;100.00;98915.44;6103659;23;20017;-74
2023/03/08 07:45:58;;;;;;;2.67;2.58;;;;;;;-0.21;100.00;99054.44;6077061;23;20280;-72
2023/03/08 07:48:24;;;;;;;3.03;2.92;;;;;;;-0.67;100.00;98982.09;6101982;23;20028;-74
2023/03/08 07:50:51;;;;;;;3.30;3.00;;;;;;;-0.52;100.00;98997.94;6079019;23;20535;-73
2023/03/08 07:53:17;;;;;;;2.80;2.70;;;;;;;-0.51;100.00;98989.31;6081746;23;20060;-72
2023/03/08 07:55:43;;;;;;;3.25;3.03;;;;;;;-0.49;100.00;99001.25;6069114;23;20037;-73
2023/03/08 07:58:10;;;;;;;3.10;3.00;;;;;;;-0.26;100.00;99027.97;6106606;23;20043;-73
2023/03/08 08:00:36;;;;;;;4.00;3.58;;;;;;;-0.71;100.00;98949.63;6072784;23;20038;-71
2023/03/08 08:03:03;;;;;;;3.38;2.70;;;;;;;-0.21;100.00;99029.47;6107157;23;20044;-72
2023/03/08 08:05:29;;;;;;;2.60;2.50;;;;;;;-0.32;100.00;99010.13;6079356;23;20025;-73
2023/03/08 08:07:55;;;;;;;3.58;3.38;;;;;;;-0.22;100.00;99025.25;6080963;23;20071;-71
2023/03/08 08:10:22;;;;;;;2.92;2.83;;;;;;;-0.65;100.00;98933.94;6077330;23;20050;-73
2023/03/08 08:12:48;;;;;;;4.10;3.25;;;;;;;-0.23;100.00;99009.81;6079789;23;20078;-73
2023/03/08 08:15:16;;;;;;;3.50;3.20;;;;;;;-0.18;100.00;99007.06;6081567;23;20025;-72
2023/03/08 08:17:42;;;;;;;3.50;3.22;;;;;;;-0.15;100.00;98999.25;6104705;23;20041;-73
2023/03/08 08:20:10;;;;;;;2.75;2.65;;;;;;;-0.39;100.00;98952.81;6025320;23;20151;-73
2023/03/08 08:22:37;;;;;;;2.75;2.65;;;;;;;-0.26;100.00;98958.34;6102559;23;20029;-72
2023/03/08 08:25:07;;;;;;;2.85;2.75;;;;;;;-0.49;100.00;98917.97;6058306;23;20244;-73
2023/03/08 08:27:34;;;;;;;2.92;2.83;;;;;;;-0.13;100.00;98961.34;6101519;23;20028;-72
2023/03/08 08:30:01;;;;;;;2.50;2.40;;;;;;;-0.35;100.00;98910.56;6081353;23;20147;-73
2023/03/08 08:32:28;;;;;;;3.70;3.15;;;;;;;-0.47;100.00;98875.78;6104058;23;20637;-72
2023/03/08 08:34:54;;;;;;;3.47;3.28;;;;;;;-0.60;100.00;98851.38;6046761;23;20034;-72
2023/03/08 08:37:21;;;;;;;2.53;2.42;;;;;;;-0.41;100.00;98862.66;6105588;23;20079;-72
2023/03/08 08:39:48;;;;;;;3.22;3.05;;;;;;;0.16;100.00;98952.50;6081655;23;20018;-73
2023/03/08 08:42:14;;;;;;;2.92;2.83;;;;;;;-0.15;100.00;98896.94;6104976;23;20485;-72
2023/03/08 08:44:41;;;;;;;3.25;3.08;;;;;;;0.08;100.00;98913.28;6048149;23;20242;-73
2023/03/08 08:47:07;;;;;;;2.65;2.55;;;;;;;0.28;100.00;98941.75;6105421;23;20159;-73
2023/03/08 08:49:34;;;;;;;3.13;3.03;;;;;;;0.18;100.00;98930.94;6059173;23;20093;-72
2023/03/08 08:52:00;;;;;;;3.17;2.97;;;;;;;0.22;100.00;98929.09;6101817;23;20040;-73
2023/03/08 08:54:27;;;;;;;2.95;2.80;;;;;;;0.12;100.00;98892.50;6049276;23;20385;-73
2023/03/08 08:56:53;;;;;;;2.97;2.80;;;;;;;-0.18;100.00;98824.91;6105607;23;20006;-73
2023/03/08 08:59:20;;;;;;;4.78;4.18;;;;;;;0.27;100.00;98880.72;6079015;23;20025;-73
2023/03/08 09:01:47;;;;;;;3.10;2.95;;;;;;;0.22;100.00;98874.94;6097449;23;20432;-72
2023/03/08 09:04:15;;;;;;;3.67;2.92;;;;;;;0.46;100.00;98900.63;6050989;23;20034;-72
2023/03/08 09:06:44;;;;;;;3.20;2.90;;;;;;;0.53;100.00;98896.91;6102663;23;20033;-72
2023/03/08 09:09:11;;;;;;;3.00;2.90;;;;;;;0.47;100.00;98866.19;6050394;23;20023;-73
2023/03/08 09:11:37;;;;;;;3.20;3.00;;;;;;;0.33;100.00;98808.25;6049180;23;20219;-72
2023/03/08 09:14:19;;;;;;;2.87;2.73;;;;;;;0.59;100.00;98848.47;6077724;23;20028;-73
2023/03/08 09:16:45;;;;;;;3.53;3.33;;;;;;;0.39;100.00;98828.63;6105808;23;20440;-72
2023/03/08 09:19:12;;;;;;;3.00;2.80;;;;;;;0.42;100.00;98839.72;6053973;23;20037;-71
2023/03/08 09:21:38;;;;;;;3.20;3.10;;;;;;;0.24;100.00;98785.41;6103887;23;20048;-73
2023/03/08 09:24:08;;;;;;;4.93;3.25;;;;;;;0.69;100.00;98856.66;6054744;23;20042;-73
2023/03/08 09:26:35;;;;;;;3.45;3.25;;;;;;;0.49;100.00;98807.63;6102777;23;20405;-72
2023/03/08 09:29:04;;;;;;;3.90;3.60;;;;;;;0.95;100.00;98870.25;6047099;23;20080;-74
2023/03/08 09:31:32;;;;;;;2.75;2.65;;;;;;;0.84;100.00;98820.78;6045457;23;20097;-73
2023/03/08 09:33:59;;;;;;;3.63;3.42;;;;;;;1.17;100.00;98832.22;6101684;23;20080;-73
2023/03/08 09:36:27;;;;;;;3.30;3.15;;;;;;;1.54;100.00;98859.06;6026127;23;20328;-72
2023/03/08 09:38:55;;;;;;;3.67;3.30;;;;;;;1.82;100.00;98856.94;6113087;23;20029;-75
2023/03/08 09:41:47;;;;;;;3.45;3.25;;;;;;;1.90;100.00;98805.69;6078846;23;20064;-72
2023/03/08 09:44:42;;;;;;;3.50;2.90;;;;;;;2.06;100.00;98819.56;6120055;23;20142;-74
2023/03/08 09:47:38;;;;;;;3.13;2.92;;;;;;;1.91;100.00;98826.31;6063913;23;20043;-74
2023/03/08 09:50:11;;;;;;;3.75;3.45;;;;;;;2.04;100.00;98859.38;6107892;23;20201;-74
2023/03/08 09:52:53;;;;;;;3.78;3.47;;;;;;;2.00;100.00;98843.16;6052621;23;20025;-75
2023/03/08 09:55:29;;;;;;;12.95;3.72;;;;;;;1.88;100.00;98828.22;6056268;23;20037;-73
2023/03/08 09:58:03;;;;;;;5.30;4.18;;;;;;;1.84;100.00;98819.75;6052767;23;20026;-73
2023/03/08 10:00:33;;;;;;;4.10;3.80;;;;;;;1.98;100.00;98845.84;6078537;23;20033;-72
2023/03/08 10:03:20;;;;;;;4.05;3.75;;;;;;;1.89;100.00;98816.97;6107472;23;20038;-74
2023/03/08 10:06:06;;;;;;;4.13;3.83;;;;;;;2.07;100.00;98805.75;6081853;23;20198;-71
2023/03/08 10:08:59;;;;;;;4.22;3.97;;;;;;;2.20;100.00;98772.34;6052373;23;20030;-73
2023/03/08 10:11:43;;;;;;;4.25;3.92;;;;;;;2.81;100.00;98833.19;6109073;23;20383;-73
2023/03/08 10:14:27;;;;;;;4.97;3.42;;;;;;;2.89;100.00;98828.47;6078650;23;20030;-74
2023/03/08 10:17:02;;;;;;;3.70;3.50;;;;;;;2.72;100.00;98811.16;6048680;23;20065;-73
2023/03/08 10:19:35;;;;;;;4.72;4.32;;;;;;;2.61;100.00;98831.59;6081892;23;20336;-70
2023/03/08 10:22:15;;;;;;;5.70;5.30;;;;;;;1.61;100.00;98644.19;6103669;23;20348;-74
2023/03/08 10:24:52;;;;;;;4.35;3.90;;;;;;;2.59;100.00;98805.78;6077284;23;20432;-74
2023/03/08 10:27:24;;;;;;;7.85;3.78;;;;;;;2.70;100.00;98818.19;6108617;23;20339;-73
2023/03/08 10:29:55;;;;;;;4.50;4.15;;;;;;;2.57;100.00;98814.53;6081036;23;20038;-71
2023/03/08 10:32:23;;;;;;;4.35;4.13;;;;;;;2.81;100.00;98838.38;6049182;23;20556;-72
2023/03/08 10:34:50;;;;;;;4.10;3.78;;;;;;;2.69;100.00;98813.94;6105373;23;20062;-73
2023/03/08 10:37:18;;;;;;;3.80;3.58;;;;;;;2.02;100.00;98726.66;6076837;23;20222;-72
2023/03/08 10:39:53;;;;;;;3.60;3.40;;;;;;;1.67;100.00;98651.66;6108289;23;20037;-75
2023/03/08 10:42:24;;;;;;;4.43;4.13;;;;;;;2.80;100.00;98828.91;6060740;23;20014;-75
2023/03/08 10:44:59;;;;;;;3.58;3.40;;;;;;;2.69;100.00;98824.28;6107237;23;20603;-74
2023/03/08 10:47:28;;;;;;;5.03;4.38;;;;;;;2.82;100.00;98831.44;6082942;23;20005;-74
2023/03/08 10:50:05;;;;;;;5.15;4.78;;;;;;;2.88;100.00;98820.75;6052140;23;20037;-73
2023/03/08 10:52:31;;;;;;;4.82;4.53;;;;;;;2.92;100.00;98814.50;6080004;23;20033;-73
2023/03/08 10:55:04;;;;;;;4.35;4.05;;;;;;;2.85;100.00;98790.69;6110733;23;20636;-72
2023/03/08 10:57:32;;;;;;;3.80;3.50;;;;;;;2.61;100.00;98746.16;6082690;23;20135;-72
2023/03/08 11:00:18;;;;;;;3.63;3.42;;;;;;;2.93;100.00;98787.69;6084051;23;20245;-74
2023/03/08 11:02:47;;;;;;;4.22;4.03;;;;;;;2.93;100.00;98788.53;6059182;23;20029;-73
2023/03/08 11:05:25;;;;;;;3.58;3.28;;;;;;;3.18;100.00;98793.25;6107896;23;20092;-70
2023/03/08 11:07:55;;;;;;;4.10;3.80;;;;;;;3.13;100.00;98743.44;6050392;23;20380;-73
2023/03/08 11:10:25;;;;;;;3.90;3.60;;;;;;;3.37;100.00;98769.81;6107187;23;20412;-72
2023/03/08 11:13:12;;;;;;;3.85;3.65;;;;;;;2.76;100.00;98622.78;6080130;23;20034;-74
2023/03/08 11:15:43;;;;;;;4.40;4.20;;;;;;;3.80;100.00;98782.19;6104805;23;20644;-73
2023/03/08 11:18:30;;;;;;;3.70;3.50;;;;;;;3.13;100.00;98701.97;6024199;23;20255;-74
2023/03/08 11:21:04;;;;;;;3.55;3.35;;;;;;;3.66;100.00;98790.72;6107062;23;20028;-72
2023/03/08 11:23:47;;;;;;;4.93;4.40;;;;;;;3.68;100.00;98781.09;6077305;23;20037;-75
2023/03/08 11:26:23;;;;;;;4.22;3.92;;;;;;;3.73;100.00;98775.69;6053101;23;20071;-75
2023/03/08 11:29:25;;;;;;;4.43;4.15;;;;;;;3.86;100.00;98766.28;6105085;23;20517;-73
2023/03/08 11:32:33;;;;;;;5.35;4.93;;;;;;;3.85;100.00;98768.94;6031370;23;20091;-74
2023/03/08 11:35:23;;;;;;;6.22;5.72;;;;;;;4.09;100.00;98770.19;6107229;23;20523;-74
2023/03/08 11:38:00;;;;;;;6.13;5.72;;;;;;;3.38;100.00;98701.47;6080558;23;20093;-73